This is the latest recevied weather packets stored in our database for station/object OM6ABF-12. If no packets are shown the sender has not sent any weather packets the latest 1 day(s).
| Time | Temp. | Humidity | Pressure | Rain* | Wind** | Luminosity | Snow |
|---|---|---|---|---|---|---|---|
| 1778083083 | 13.33° C | 55% | 1020.4 hPa | - | - | - | - |
| 1778075414 | 15° C | 51% | 1021.1 hPa | - | - | - | - |
| 1778074458 | 14.44° C | 53% | 1021.2 hPa | - | - | - | - |
| 1778073501 | 15° C | 49% | 1021.3 hPa | - | - | - | - |
| 1778072542 | 15° C | 51% | 1021.1 hPa | - | - | - | - |
| 1778071584 | 14.44° C | 53% | 1021.3 hPa | - | - | - | - |
| 1778070627 | 15° C | 52% | 1021.4 hPa | - | - | - | - |
| 1778066797 | 17.22° C | 47% | 1021.2 hPa | - | - | - | - |
| 1778063923 | 16.11° C | 51% | 1021.2 hPa | - | - | - | - |
| 1778062965 | 14.44° C | 53% | 1021.3 hPa | - | - | - | - |
| 1778061052 | 14.44° C | 54% | 1021.3 hPa | - | - | - | - |
| 1778060096 | 14.44° C | 52% | 1021.2 hPa | - | - | - | - |
| 1778059139 | 14.44° C | 54% | 1021.2 hPa | - | - | - | - |
| 1778056267 | 15.56° C | 51% | 1020.9 hPa | - | - | - | - |
| 1778055309 | 14.44° C | 53% | 1020.7 hPa | - | - | - | - |
| 1778054352 | 14.44° C | 53% | 1020.7 hPa | - | - | - | - |
| 1778053396 | 13.89° C | 56% | 1020.6 hPa | - | - | - | - |
| 1778051479 | 11.11° C | 65% | 1020.4 hPa | - | - | - | - |
| 1778049563 | 8.33° C | 78% | 1020.5 hPa | - | - | - | - |
| 1778048606 | 7.78° C | 79% | 1020.3 hPa | - | - | - | - |
| 1778046690 | 7.22° C | 83% | 1020 hPa | - | - | - | - |
| 1778045734 | 6.67° C | 84% | 1020 hPa | - | - | - | - |
| 1778044776 | 6.11° C | 85% | 1019.9 hPa | - | - | - | - |
| 1778043818 | 6.11° C | 85% | 1019.9 hPa | - | - | - | - |
| 1778042860 | 6.11° C | 85% | 1019.9 hPa | - | - | - | - |
* Rain since midnight (hover to see other rain measurements)
** Current wind speed in m/s (hover to see current wind gust speed)